createdAt,value
2023-03-07T00:01:37.207Z,11.00
2023-03-07T00:04:40.109Z,10.70
2023-03-07T00:07:42.960Z,10.97
2023-03-07T00:10:45.850Z,11.63
2023-03-07T00:13:48.825Z,11.90
2023-03-07T00:16:53.271Z,11.33
2023-03-07T00:19:56.207Z,10.87
2023-03-07T00:22:59.068Z,10.60
2023-03-07T00:26:03.467Z,10.20
2023-03-07T00:29:07.858Z,10.67
2023-03-07T00:32:12.090Z,11.73
2023-03-07T00:35:15.363Z,10.23
2023-03-07T00:38:18.260Z,11.50
2023-03-07T00:41:22.627Z,9.60
2023-03-07T00:44:27.141Z,11.70
2023-03-07T00:47:31.315Z,10.67
2023-03-07T00:50:35.846Z,10.73
2023-03-07T00:53:39.740Z,11.40
2023-03-07T00:56:42.651Z,10.43
2023-03-07T00:59:45.798Z,11.10
2023-03-07T01:02:51.641Z,10.70
2023-03-07T01:05:55.624Z,11.80
2023-03-07T01:09:00.634Z,11.37
2023-03-07T01:12:07.156Z,11.23
2023-03-07T01:15:10.750Z,11.33
2023-03-07T01:18:15.011Z,11.07
2023-03-07T01:21:19.719Z,9.77
2023-03-07T01:24:22.593Z,10.27
2023-03-07T01:27:25.429Z,11.20
2023-03-07T01:30:28.267Z,9.47
2023-03-07T01:33:32.919Z,10.00
2023-03-07T01:36:37.411Z,10.30
2023-03-07T01:39:40.299Z,9.90
2023-03-07T01:42:43.171Z,10.40
2023-03-07T01:46:26.813Z,9.67
2023-03-07T01:49:35.263Z,8.90
2023-03-07T01:52:40.919Z,9.57
2023-03-07T01:55:43.967Z,8.70
2023-03-07T01:58:47.919Z,9.00
2023-03-07T02:01:52.206Z,9.43
2023-03-07T02:05:01.900Z,8.97
2023-03-07T02:08:08.395Z,8.67
2023-03-07T02:11:12.728Z,9.33
2023-03-07T02:14:15.574Z,9.07
2023-03-07T02:17:18.898Z,9.07
2023-03-07T02:20:34.458Z,9.23
2023-03-07T02:23:43.529Z,9.53
2023-03-07T02:26:48.958Z,9.43
2023-03-07T02:29:51.842Z,9.50
2023-03-07T02:32:54.689Z,9.17
2023-03-07T02:36:01.267Z,8.60
2023-03-07T02:39:06.869Z,8.77
2023-03-07T02:42:15.142Z,8.07
2023-03-07T02:45:20.142Z,7.80
2023-03-07T02:48:23.305Z,9.30
2023-03-07T02:51:26.212Z,9.00
2023-03-07T02:54:29.053Z,9.10
2023-03-07T02:57:33.255Z,8.43
2023-03-07T03:00:37.064Z,9.47
2023-03-07T03:03:39.946Z,8.57
2023-03-07T03:06:42.832Z,8.53
2023-03-07T03:09:45.680Z,9.13
2023-03-07T03:12:49.880Z,9.50
2023-03-07T03:15:56.737Z,8.47
2023-03-07T03:19:00.133Z,8.50
2023-03-07T03:22:04.143Z,8.47
2023-03-07T03:25:09.879Z,8.10
2023-03-07T03:28:14.374Z,8.40
2023-03-07T03:31:17.958Z,8.33
2023-03-07T03:34:21.008Z,8.53
2023-03-07T03:37:23.971Z,8.37
2023-03-07T03:40:26.793Z,8.37
2023-03-07T03:43:30.979Z,7.70
2023-03-07T03:46:33.902Z,7.97
2023-03-07T03:49:36.735Z,8.20
2023-03-07T03:52:39.589Z,9.07
2023-03-07T03:55:42.499Z,8.23
2023-03-07T03:58:48.495Z,8.53
2023-03-07T04:01:51.741Z,8.83
2023-03-07T04:04:54.632Z,8.50
2023-03-07T04:07:57.477Z,7.93
2023-03-07T04:11:00.406Z,7.67
2023-03-07T04:14:04.882Z,8.30
2023-03-07T04:17:07.729Z,8.40
2023-03-07T04:20:17.353Z,8.43
2023-03-07T04:23:21.679Z,8.77
2023-03-07T04:26:24.632Z,8.43
2023-03-07T04:29:30.414Z,8.37
2023-03-07T04:32:33.470Z,9.23
2023-03-07T04:35:36.357Z,8.20
2023-03-07T04:38:40.567Z,7.53
2023-03-07T04:41:43.458Z,9.00
2023-03-07T04:44:47.648Z,8.20
2023-03-07T04:47:50.490Z,8.43
2023-03-07T04:50:53.630Z,8.63
2023-03-07T04:53:56.489Z,9.13
2023-03-07T04:56:59.328Z,8.33
2023-03-07T05:00:03.615Z,8.70
2023-03-07T05:03:06.476Z,8.10
2023-03-07T05:06:13.755Z,8.80
2023-03-07T05:09:16.643Z,8.67
2023-03-07T05:12:19.943Z,8.37
2023-03-07T05:15:24.137Z,8.23
2023-03-07T05:18:27.418Z,7.80
2023-03-07T05:21:30.271Z,8.23
2023-03-07T05:24:33.111Z,8.60
2023-03-07T05:27:36.037Z,7.80
2023-03-07T05:30:40.693Z,8.43
2023-03-07T05:33:43.534Z,7.13
2023-03-07T05:36:46.379Z,8.33
2023-03-07T05:39:49.257Z,9.00
2023-03-07T05:42:52.101Z,7.13
2023-03-07T05:45:56.304Z,8.63
2023-03-07T05:48:59.163Z,8.30
2023-03-07T05:52:02.312Z,8.83
2023-03-07T05:55:05.665Z,8.27
2023-03-07T05:58:08.541Z,9.80
2023-03-07T06:01:13.020Z,9.53
2023-03-07T06:04:15.899Z,8.23
2023-03-07T06:07:18.798Z,7.77
2023-03-07T06:10:22.103Z,8.47
2023-03-07T06:13:26.346Z,9.30
2023-03-07T06:16:30.557Z,8.27
2023-03-07T06:19:33.913Z,7.73
2023-03-07T06:22:38.196Z,8.83
2023-03-07T06:25:41.247Z,7.20
2023-03-07T06:28:44.554Z,9.80
2023-03-07T06:31:48.792Z,8.03
2023-03-07T06:34:51.811Z,9.40
2023-03-07T06:37:54.740Z,10.47
2023-03-07T06:40:57.801Z,10.13
2023-03-07T06:44:00.653Z,9.23
2023-03-07T06:47:04.851Z,11.30
2023-03-07T06:50:09.150Z,7.90
2023-03-07T06:53:12.085Z,10.00
2023-03-07T06:56:15.051Z,9.53
2023-03-07T06:59:17.894Z,9.00
2023-03-07T07:02:22.167Z,7.97
2023-03-07T07:05:25.472Z,9.53
2023-03-07T07:08:28.310Z,9.03
2023-03-07T07:11:31.152Z,7.93
2023-03-07T07:14:34.550Z,10.50
2023-03-07T07:17:39.768Z,7.63
2023-03-07T07:20:42.763Z,8.47
2023-03-07T07:23:45.671Z,7.80
2023-03-07T07:26:48.504Z,9.43
2023-03-07T07:29:51.813Z,8.43
2023-03-07T07:32:56.164Z,8.23
2023-03-07T07:35:59.140Z,7.97
2023-03-07T07:39:04.110Z,8.93
2023-03-07T07:42:07.263Z,8.40
2023-03-07T07:45:10.919Z,8.13
2023-03-07T07:48:15.125Z,7.97
2023-03-07T07:51:18.210Z,7.83
2023-03-07T07:54:21.095Z,8.67
2023-03-07T07:57:23.909Z,8.07
2023-03-07T08:00:27.386Z,8.37
2023-03-07T08:03:31.672Z,7.57
2023-03-07T08:06:34.528Z,8.23
2023-03-07T08:09:38.852Z,7.47
2023-03-07T08:12:41.669Z,7.27
2023-03-07T08:15:44.666Z,7.70
2023-03-07T08:18:51.650Z,7.30
2023-03-07T08:21:54.535Z,6.63
2023-03-07T08:24:57.385Z,7.17
2023-03-07T08:28:03.136Z,7.60
2023-03-07T08:31:09.633Z,8.23
2023-03-07T08:34:13.921Z,8.30
2023-03-07T08:37:16.784Z,7.37
2023-03-07T08:40:19.730Z,7.27
2023-03-07T08:43:22.633Z,6.00
2023-03-07T08:46:25.533Z,6.83
2023-03-07T08:49:29.732Z,7.27
2023-03-07T08:52:32.855Z,8.07
2023-03-07T08:55:37.043Z,7.47
2023-03-07T08:58:40.222Z,7.20
2023-03-07T09:01:43.111Z,6.33
2023-03-07T09:04:47.405Z,6.97
2023-03-07T09:07:50.304Z,6.17
2023-03-07T09:10:53.170Z,6.10
2023-03-07T09:13:56.344Z,6.53
2023-03-07T09:16:59.201Z,7.20
2023-03-07T09:20:04.271Z,7.83
2023-03-07T09:23:07.830Z,7.73
2023-03-07T09:26:11.214Z,7.47
2023-03-07T09:29:14.207Z,7.53
2023-03-07T09:32:17.320Z,6.70
2023-03-07T09:35:21.553Z,7.47
2023-03-07T09:38:24.899Z,7.10
2023-03-07T09:41:51.090Z,6.70
2023-03-07T09:45:09.618Z,6.70
2023-03-07T09:48:38.925Z,7.00
2023-03-07T09:51:44.809Z,6.97
2023-03-07T09:54:52.959Z,7.27
2023-03-07T09:57:59.658Z,7.43
2023-03-07T10:01:03.954Z,8.17
2023-03-07T10:04:13.585Z,7.23
2023-03-07T10:07:20.652Z,7.57
2023-03-07T10:10:25.783Z,6.87
2023-03-07T10:13:42.369Z,7.43
2023-03-07T10:16:50.722Z,6.93
2023-03-07T10:19:57.658Z,7.50
2023-03-07T10:23:11.585Z,8.53
2023-03-07T10:26:18.079Z,7.80
2023-03-07T10:29:25.692Z,6.97
2023-03-07T10:32:35.523Z,7.63
2023-03-07T10:35:42.080Z,8.23
2023-03-07T10:38:55.867Z,6.87
2023-03-07T10:41:58.956Z,6.80
2023-03-07T10:45:03.303Z,7.80
2023-03-07T10:48:10.240Z,8.13
2023-03-07T10:51:28.730Z,7.37
2023-03-07T10:54:34.249Z,8.00
2023-03-07T10:57:37.114Z,7.27
2023-03-07T11:00:40.017Z,7.07
2023-03-07T11:03:53.613Z,6.87
2023-03-07T11:06:59.530Z,7.37
2023-03-07T11:10:28.258Z,7.67
2023-03-07T11:13:31.829Z,7.67
2023-03-07T11:16:34.903Z,7.60
2023-03-07T11:19:40.889Z,7.73
2023-03-07T11:22:43.743Z,7.20
2023-03-07T11:25:47.906Z,8.00
2023-03-07T11:29:05.794Z,7.77
2023-03-07T11:32:15.303Z,7.63
2023-03-07T11:35:22.620Z,8.20
2023-03-07T11:38:44.255Z,8.13
2023-03-07T11:41:53.160Z,8.77
2023-03-07T11:45:01.752Z,8.13
2023-03-07T11:48:16.080Z,8.00
2023-03-07T11:51:33.583Z,8.20
2023-03-07T11:54:48.681Z,7.47
2023-03-07T11:58:05.779Z,8.03
2023-03-07T12:01:17.750Z,7.73
2023-03-07T12:04:54.424Z,8.47
2023-03-07T12:08:26.523Z,7.53
2023-03-07T12:11:59.017Z,7.40
2023-03-07T12:15:18.102Z,7.40
2023-03-07T12:18:46.491Z,8.03
2023-03-07T12:22:06.996Z,7.43
2023-03-07T12:25:24.651Z,7.67
2023-03-07T12:28:31.761Z,7.20
2023-03-07T12:31:41.167Z,7.30
2023-03-07T12:34:47.384Z,7.70
2023-03-07T12:37:54.957Z,8.10
2023-03-07T12:41:03.184Z,7.20
2023-03-07T12:44:11.278Z,7.33
2023-03-07T12:47:23.864Z,7.43
2023-03-07T12:50:31.827Z,7.90
2023-03-07T12:53:38.850Z,7.27
2023-03-07T12:56:52.641Z,6.80
2023-03-07T13:00:02.817Z,8.67
2023-03-07T13:03:08.061Z,7.23
2023-03-07T13:06:16.870Z,8.40
2023-03-07T13:09:23.175Z,7.43
2023-03-07T13:12:34.871Z,6.40
2023-03-07T13:16:06.470Z,7.80
2023-03-07T13:20:03.425Z,10.90
2023-03-07T13:23:28.919Z,7.93
2023-03-07T13:26:31.940Z,7.80
2023-03-07T13:30:04.041Z,7.90
2023-03-07T13:33:27.577Z,6.90
2023-03-07T13:36:35.760Z,6.63
2023-03-07T13:39:40.267Z,7.60
2023-03-07T13:42:47.651Z,7.27
2023-03-07T13:45:52.888Z,7.50
2023-03-07T13:49:03.907Z,6.80
2023-03-07T13:52:39.305Z,6.43
2023-03-07T13:55:46.440Z,8.07
2023-03-07T13:58:57.388Z,6.83
2023-03-07T14:02:04.195Z,6.67
2023-03-07T14:05:07.117Z,7.23
2023-03-07T14:08:14.652Z,7.03
2023-03-07T14:11:24.547Z,6.73
2023-03-07T14:14:40.500Z,7.10
2023-03-07T14:17:56.875Z,7.40
2023-03-07T14:21:09.615Z,7.50
2023-03-07T14:24:28.445Z,7.73
2023-03-07T14:27:32.909Z,6.30
2023-03-07T14:30:35.833Z,6.90
2023-03-07T14:33:40.373Z,7.40
2023-03-07T14:36:45.228Z,6.53
2023-03-07T14:40:01.105Z,7.73
2023-03-07T14:43:25.716Z,7.37
2023-03-07T14:46:35.456Z,7.93
2023-03-07T14:49:44.614Z,6.93
2023-03-07T14:52:49.714Z,7.10
2023-03-07T14:55:54.603Z,6.87
2023-03-07T14:59:01.816Z,7.40
2023-03-07T15:02:15.466Z,8.07
2023-03-07T15:05:19.759Z,6.83
2023-03-07T15:08:25.479Z,7.63
2023-03-07T15:11:32.978Z,5.93
2023-03-07T15:14:45.485Z,7.00
2023-03-07T15:17:48.703Z,7.00
2023-03-07T15:20:53.377Z,6.57
2023-03-07T15:23:57.994Z,6.73
2023-03-07T15:27:02.440Z,7.80
2023-03-07T15:30:23.885Z,6.87
2023-03-07T15:33:28.863Z,7.37
2023-03-07T15:36:31.696Z,6.90
2023-03-07T15:39:35.614Z,7.10
2023-03-07T15:42:50.631Z,7.97
2023-03-07T15:46:04.365Z,6.93
2023-03-07T15:49:07.631Z,7.53
2023-03-07T15:52:27.037Z,6.43
2023-03-07T15:55:30.469Z,7.10
2023-03-07T15:58:36.341Z,9.37
2023-03-07T16:01:40.541Z,7.50
2023-03-07T16:04:43.401Z,7.33
2023-03-07T16:07:46.584Z,7.37
2023-03-07T16:10:53.236Z,6.63
2023-03-07T16:13:56.179Z,6.63
2023-03-07T16:17:03.282Z,7.97
2023-03-07T16:20:14.659Z,7.27
2023-03-07T16:23:17.557Z,7.17
2023-03-07T16:26:23.032Z,6.73
2023-03-07T16:29:25.974Z,9.20
2023-03-07T16:32:30.239Z,8.37
2023-03-07T16:35:33.218Z,8.00
2023-03-07T16:38:36.110Z,7.43
2023-03-07T16:41:40.120Z,8.10
2023-03-07T16:44:43.066Z,8.27
2023-03-07T16:47:48.014Z,8.60
2023-03-07T16:50:50.904Z,8.00
2023-03-07T16:53:53.836Z,8.87
2023-03-07T16:56:58.311Z,8.87
2023-03-07T17:00:01.324Z,8.57
2023-03-07T17:03:05.628Z,7.87
2023-03-07T17:06:13.168Z,8.73
2023-03-07T17:09:16.020Z,8.73
2023-03-07T17:12:20.475Z,9.07
2023-03-07T17:15:26.366Z,9.23
2023-03-07T17:18:33.702Z,8.27
2023-03-07T17:21:36.538Z,8.70
2023-03-07T17:24:39.374Z,10.30
2023-03-07T17:27:44.908Z,9.27
2023-03-07T17:30:47.995Z,9.43
2023-03-07T17:33:52.235Z,10.03
2023-03-07T17:36:55.161Z,8.80
2023-03-07T17:39:58.277Z,10.13
2023-03-07T17:43:01.424Z,10.40
2023-03-07T17:46:09.816Z,8.90
2023-03-07T17:49:15.169Z,10.13
2023-03-07T17:52:18.017Z,9.87
2023-03-07T17:55:21.147Z,10.43
2023-03-07T17:58:23.977Z,10.93
2023-03-07T18:01:26.927Z,10.30
2023-03-07T18:04:31.759Z,10.50
2023-03-07T18:07:34.715Z,10.27
2023-03-07T18:10:37.544Z,11.20
2023-03-07T18:13:40.597Z,10.93
2023-03-07T18:16:43.896Z,13.10
2023-03-07T18:19:48.082Z,13.47
2023-03-07T18:22:50.915Z,14.47
2023-03-07T18:25:57.893Z,15.43
2023-03-07T18:29:00.716Z,14.47
2023-03-07T18:32:03.725Z,14.53
2023-03-07T18:35:09.316Z,13.47
2023-03-07T18:38:12.176Z,13.57
2023-03-07T18:41:17.008Z,12.10
2023-03-07T18:44:19.837Z,12.13
2023-03-07T18:47:22.710Z,13.70
2023-03-07T18:50:26.932Z,12.43
2023-03-07T18:53:30.405Z,12.63
2023-03-07T18:56:33.425Z,12.77
2023-03-07T18:59:36.383Z,11.67
2023-03-07T19:02:39.375Z,13.37
2023-03-07T19:05:48.124Z,12.37
2023-03-07T19:08:51.088Z,12.70
2023-03-07T19:11:54.208Z,13.57
2023-03-07T19:14:57.091Z,14.10
2023-03-07T19:17:59.969Z,13.67
2023-03-07T19:21:07.787Z,13.83
2023-03-07T19:24:12.522Z,12.43
2023-03-07T19:27:15.366Z,12.80
2023-03-07T19:30:19.048Z,13.17
2023-03-07T19:33:21.919Z,12.37
2023-03-07T19:36:27.659Z,12.57
2023-03-07T19:39:30.495Z,12.63
2023-03-07T19:42:33.360Z,12.37
2023-03-07T19:45:40.930Z,14.17
2023-03-07T19:48:44.330Z,19.80
2023-03-07T19:51:48.925Z,15.23
2023-03-07T19:54:53.267Z,13.23
2023-03-07T19:57:56.130Z,15.67
2023-03-07T20:00:59.384Z,13.93
2023-03-07T20:04:04.735Z,13.30
2023-03-07T20:07:08.972Z,12.73
2023-03-07T20:10:12.829Z,12.80
2023-03-07T20:13:15.836Z,13.10
2023-03-07T20:16:20.423Z,12.03
2023-03-07T20:19:23.368Z,10.77
2023-03-07T20:22:28.524Z,10.03
2023-03-07T20:25:31.896Z,9.40
2023-03-07T20:28:34.888Z,11.20
2023-03-07T20:31:39.219Z,10.97
2023-03-07T20:34:42.336Z,9.77
2023-03-07T20:37:46.531Z,11.33
2023-03-07T20:40:49.391Z,12.03
2023-03-07T20:43:53.591Z,11.33
2023-03-07T20:46:56.684Z,12.57
2023-03-07T20:49:59.518Z,13.00
2023-03-07T20:53:03.755Z,13.20
2023-03-07T20:56:07.890Z,11.83
2023-03-07T20:59:15.276Z,12.23
2023-03-07T21:02:18.156Z,11.07
2023-03-07T21:05:21.001Z,11.17
2023-03-07T21:08:25.470Z,9.00
2023-03-07T21:11:31.358Z,10.87
2023-03-07T21:14:34.272Z,10.57
2023-03-07T21:17:37.140Z,10.57
2023-03-07T21:20:40.707Z,10.13
2023-03-07T21:23:45.619Z,10.53
2023-03-07T21:26:48.467Z,9.50
2023-03-07T21:29:51.312Z,9.67
2023-03-07T21:32:56.896Z,10.77
2023-03-07T21:36:00.343Z,11.33
2023-03-07T21:39:07.911Z,9.80
2023-03-07T21:42:10.959Z,11.17
2023-03-07T21:45:14.461Z,10.97
2023-03-07T21:48:19.263Z,10.10
2023-03-07T21:51:22.431Z,12.20
2023-03-07T21:54:26.702Z,11.30
2023-03-07T21:57:29.834Z,10.33
2023-03-07T22:00:33.462Z,11.07
2023-03-07T22:03:36.328Z,11.50
2023-03-07T22:06:39.208Z,10.63
2023-03-07T22:09:43.395Z,10.33
2023-03-07T22:12:46.277Z,10.30
2023-03-07T22:15:49.208Z,9.77
2023-03-07T22:18:56.046Z,10.07
2023-03-07T22:21:58.886Z,9.37
2023-03-07T22:25:03.341Z,9.13
2023-03-07T22:28:06.290Z,9.33
2023-03-07T22:31:11.035Z,8.30
2023-03-07T22:34:13.888Z,8.53
2023-03-07T22:37:16.744Z,7.67
2023-03-07T22:40:21.497Z,8.60
2023-03-07T22:43:24.447Z,8.20
2023-03-07T22:46:27.417Z,8.47
2023-03-07T22:49:30.472Z,10.50
2023-03-07T22:52:33.316Z,9.33
2023-03-07T22:55:42.252Z,9.73
2023-03-07T22:58:45.163Z,10.53
2023-03-07T23:01:48.539Z,9.60
2023-03-07T23:04:53.510Z,9.57
2023-03-07T23:07:56.592Z,10.63
2023-03-07T23:11:03.318Z,10.47
2023-03-07T23:14:06.290Z,9.90
2023-03-07T23:17:09.132Z,10.53
2023-03-07T23:20:13.221Z,10.40
2023-03-07T23:23:16.041Z,10.07
2023-03-07T23:26:22.638Z,9.57
2023-03-07T23:29:25.488Z,10.03
2023-03-07T23:32:28.528Z,10.43
2023-03-07T23:35:34.024Z,10.13
2023-03-07T23:38:36.870Z,10.83
2023-03-07T23:41:41.061Z,11.23
2023-03-07T23:44:44.276Z,10.53
2023-03-07T23:47:47.106Z,10.13
2023-03-07T23:50:50.447Z,9.07
2023-03-07T23:53:53.507Z,8.80
2023-03-07T23:56:57.679Z,9.73
